Aviation Digital Data Service (ADDS)

Output produced by TAFs form (2358 UTC 28 November 2014)
found at http://aviationweather.gov/adds/tafs/
 
KSAF 282328Z 2900/2924 VRB05KT P6SM FEW250 
     FM290500 36009KT P6SM FEW250 
     FM291800 28010KT P6SM FEW250